createdAt,value
2023-05-22T06:16:11.568Z,22.55
2023-05-22T06:17:11.648Z,22.36
2023-05-22T06:18:12.192Z,22.17
2023-05-22T06:19:11.328Z,21.58
2023-05-22T06:20:11.459Z,21.31
2023-05-22T15:14:49.194Z,22.28
2023-05-22T15:15:51.977Z,22.22
2023-05-22T15:16:51.370Z,22.02
2023-05-22T15:17:50.862Z,22.12
2023-05-22T15:18:50.801Z,21.83
2023-05-22T15:19:50.849Z,21.79
2023-05-22T15:20:50.297Z,21.82
2023-05-22T15:21:50.645Z,21.84
2023-05-22T15:22:50.474Z,21.92
2023-05-22T15:23:50.579Z,21.90
2023-05-22T15:24:50.276Z,21.74
2023-05-22T15:25:50.386Z,21.86
2023-05-22T15:26:50.220Z,21.86
2023-05-22T15:27:50.218Z,21.72
2023-05-22T15:28:50.268Z,21.68
2023-05-22T15:29:50.390Z,21.59
2023-05-22T15:30:50.543Z,21.53
2023-05-22T15:31:50.416Z,21.58
2023-05-22T15:32:50.575Z,21.67
2023-05-22T15:33:50.392Z,21.54
2023-05-22T15:34:50.229Z,21.38
2023-05-22T15:35:50.218Z,21.49
2023-05-22T15:36:50.403Z,21.53
2023-05-22T15:37:50.421Z,21.44
2023-05-22T15:38:49.998Z,21.31
2023-05-22T15:39:50.012Z,21.40
2023-05-22T15:40:50.507Z,21.44
2023-05-22T15:42:02.247Z,21.46
2023-05-22T15:42:50.441Z,21.50
2023-05-22T15:43:50.276Z,21.53
2023-05-22T15:44:51.352Z,21.53
2023-05-22T15:45:50.965Z,21.34
2023-05-22T15:46:50.863Z,21.49
2023-05-22T15:47:51.260Z,21.46
2023-05-22T15:48:54.817Z,21.40
2023-05-22T15:49:51.334Z,21.31
2023-05-22T15:50:50.340Z,21.35
2023-05-22T15:51:50.091Z,21.24
2023-05-22T15:52:50.274Z,21.21
2023-05-22T15:53:52.105Z,21.06
2023-05-22T15:54:52.123Z,21.12
2023-05-22T15:55:52.095Z,21.01
2023-05-22T15:56:52.706Z,21.07
2023-05-22T15:57:50.698Z,21.10
2023-05-22T15:58:50.184Z,21.10
2023-05-22T15:59:50.888Z,21.19
2023-05-22T16:00:49.840Z,21.24
2023-05-22T16:01:50.034Z,21.16
2023-05-22T16:02:50.510Z,21.19
2023-05-22T16:03:51.531Z,21.19
2023-05-22T16:04:50.543Z,21.35
2023-05-22T16:05:49.759Z,21.35
2023-05-22T16:06:50.005Z,21.29
2023-05-22T16:07:49.907Z,21.21
2023-05-22T16:08:50.160Z,21.29
2023-05-22T16:09:50.624Z,21.34
2023-05-22T16:10:49.748Z,21.32
2023-05-22T16:11:50.642Z,21.27
2023-05-22T16:12:49.672Z,21.28
2023-05-22T16:13:49.687Z,21.43
2023-05-22T16:14:49.651Z,21.37
2023-05-22T16:15:50.050Z,21.47
2023-05-22T16:16:49.567Z,21.54
2023-05-22T16:17:49.660Z,21.50
2023-05-22T16:18:49.513Z,21.64
2023-05-22T16:19:49.576Z,21.69
2023-05-22T16:20:49.822Z,21.74
2023-05-22T16:21:49.615Z,21.77
2023-05-22T16:22:49.766Z,21.77
2023-05-22T16:23:49.413Z,21.88
2023-05-22T16:24:49.400Z,21.91
2023-05-22T16:25:50.873Z,21.82
2023-05-22T16:26:49.266Z,21.98
2023-05-22T16:27:49.323Z,22.09
2023-05-22T16:28:49.403Z,22.02
2023-05-22T16:29:49.376Z,22.14
2023-05-22T16:30:49.345Z,22.12
2023-05-22T16:31:50.050Z,22.17
2023-05-22T16:32:49.514Z,22.24
2023-05-22T16:33:49.719Z,22.22
2023-05-22T16:34:49.467Z,22.31
2023-05-22T16:35:49.289Z,22.24
2023-05-22T16:36:49.373Z,22.28
2023-05-22T16:37:50.415Z,22.24
2023-05-22T16:38:49.489Z,22.27
2023-05-22T16:39:49.499Z,22.45
2023-05-22T16:40:49.421Z,22.30
2023-05-22T16:41:50.557Z,22.28
2023-05-22T16:42:49.476Z,22.25
2023-05-22T16:43:49.258Z,22.25
2023-05-22T16:44:49.322Z,22.22
2023-05-22T16:45:49.205Z,22.36
2023-05-22T16:46:49.506Z,22.30
2023-05-22T16:47:49.870Z,22.24
2023-05-22T16:48:50.539Z,22.24
2023-05-22T16:49:54.959Z,22.36
2023-05-22T16:50:49.684Z,22.28
2023-05-22T16:51:51.180Z,22.27
